Terminal Aerodrome Forecast
Issued by NWS

Home | Current Version | Previous Version | Text Only | Print | Product List | Glossary On
Versions: 1 2 3 4 5 6 7 8 9 10 11 12 13 14 15 16 17 18 19 20
000
FTUS43 KDLH 021858 AAA
TAFBRD
TAF AMD
KBRD 021858Z 0219/0318 13013G20KT P6SM FEW029
     FM030100 12003KT P6SM SKC
     FM030800 12003KT 3SM BR SCT020 BKN025
     FM031400 12008KT P6SM SKC=

USA.gov is the U.S. government's official web portal to all federal, state and local government web resources and services.